createdAt,value
2019-05-16T00:01:19.221Z,7.83
2019-05-16T00:03:48.993Z,5.93
2019-05-16T00:06:19.655Z,5.83
2019-05-16T00:08:48.552Z,8.30
2019-05-16T00:11:17.934Z,6.03
2019-05-16T00:13:48.927Z,4.63
2019-05-16T00:16:18.705Z,6.30
2019-05-16T00:18:48.168Z,6.47
2019-05-16T00:21:17.994Z,6.30
2019-05-16T00:23:48.574Z,7.43
2019-05-16T00:26:19.719Z,5.77
2019-05-16T00:28:48.685Z,8.13
2019-05-16T00:31:18.353Z,4.73
2019-05-16T00:33:48.679Z,7.53
2019-05-16T00:36:18.865Z,10.40
2019-05-16T00:38:48.593Z,6.03
2019-05-16T00:41:18.064Z,12.33
2019-05-16T00:43:48.591Z,7.53
2019-05-16T00:46:19.947Z,9.53
2019-05-16T00:48:48.748Z,5.23
2019-05-16T00:51:18.468Z,5.13
2019-05-16T00:53:48.342Z,6.57
2019-05-16T00:56:18.556Z,7.33
2019-05-16T00:58:48.404Z,8.90
2019-05-16T01:01:18.967Z,5.17
2019-05-16T01:03:48.404Z,8.20
2019-05-16T01:06:22.641Z,3.57
2019-05-16T01:08:48.763Z,8.20
2019-05-16T01:11:18.486Z,6.37
2019-05-16T01:13:48.741Z,7.13
2019-05-16T01:16:18.670Z,6.10
2019-05-16T01:18:48.773Z,7.47
2019-05-16T01:21:18.626Z,4.73
2019-05-16T01:23:48.196Z,5.13
2019-05-16T01:26:18.600Z,5.87
2019-05-16T01:28:48.350Z,5.70
2019-05-16T01:31:19.234Z,6.10
2019-05-16T01:33:49.345Z,8.40
2019-05-16T01:36:31.836Z,6.30
2019-05-16T01:38:48.863Z,8.47
2019-05-16T01:41:18.151Z,7.37
2019-05-16T01:43:48.347Z,7.07
2019-05-16T01:46:18.170Z,5.13
2019-05-16T01:48:48.496Z,8.93
2019-05-16T01:51:18.382Z,8.53
2019-05-16T01:53:48.791Z,5.47
2019-05-16T01:56:18.172Z,7.07
2019-05-16T01:58:49.075Z,7.53
2019-05-16T02:01:19.078Z,4.30
2019-05-16T02:03:48.283Z,4.23
2019-05-16T02:06:18.345Z,5.20
2019-05-16T02:08:48.664Z,4.33
2019-05-16T02:11:18.159Z,5.43
2019-05-16T02:13:48.477Z,5.63
2019-05-16T02:16:18.740Z,6.87
2019-05-16T02:18:48.812Z,7.07
2019-05-16T02:21:18.323Z,5.73
2019-05-16T02:23:48.964Z,6.10
2019-05-16T02:26:19.184Z,5.33
2019-05-16T02:28:50.583Z,8.50
2019-05-16T02:31:22.454Z,6.43
2019-05-16T02:33:51.118Z,4.87
2019-05-16T02:36:21.625Z,4.33
2019-05-16T02:38:55.422Z,5.20
2019-05-16T02:41:21.854Z,7.03
2019-05-16T02:43:51.030Z,8.17
2019-05-16T02:46:21.931Z,7.23
2019-05-16T02:48:51.871Z,6.90
2019-05-16T02:51:21.554Z,7.13
2019-05-16T02:53:51.271Z,5.90
2019-05-16T02:56:21.500Z,4.93
2019-05-16T02:58:52.178Z,5.80
2019-05-16T03:01:21.836Z,3.60
2019-05-16T03:03:51.689Z,2.90
2019-05-16T03:06:21.371Z,5.40
2019-05-16T03:08:51.175Z,5.80
2019-05-16T03:11:21.155Z,4.83
2019-05-16T03:13:52.037Z,4.13
2019-05-16T03:16:22.457Z,9.17
2019-05-16T03:18:53.289Z,4.87
2019-05-16T03:21:23.631Z,3.30
2019-05-16T03:23:52.515Z,4.63
2019-05-16T03:26:21.417Z,4.97
2019-05-16T03:28:52.155Z,5.40
2019-05-16T03:31:24.336Z,4.60
2019-05-16T03:33:58.638Z,3.70
2019-05-16T03:36:25.041Z,5.80
2019-05-16T03:38:52.829Z,5.23
2019-05-16T03:41:21.863Z,5.60
2019-05-16T03:43:50.935Z,10.60
2019-05-16T03:46:21.506Z,3.77
2019-05-16T03:48:52.000Z,5.70
2019-05-16T03:51:21.814Z,7.90
2019-05-16T03:53:50.949Z,5.20
2019-05-16T03:56:21.799Z,4.80
2019-05-16T03:58:51.132Z,6.00
2019-05-16T04:01:21.050Z,4.00
2019-05-16T04:03:51.284Z,5.83
2019-05-16T04:06:22.056Z,4.67
2019-05-16T04:08:51.295Z,4.03
2019-05-16T04:11:23.181Z,13.30
2019-05-16T04:13:51.071Z,8.50
2019-05-16T04:16:20.955Z,7.40
2019-05-16T04:18:51.458Z,5.93
2019-05-16T04:21:21.903Z,5.33
2019-05-16T04:23:51.236Z,5.43
2019-05-16T04:26:21.618Z,6.37
2019-05-16T04:28:51.477Z,6.50
2019-05-16T04:31:22.131Z,9.20
2019-05-16T04:33:51.717Z,5.87
2019-05-16T04:36:21.387Z,6.27
2019-05-16T04:38:51.244Z,6.00
2019-05-16T04:41:21.409Z,6.10
2019-05-16T04:43:50.955Z,7.03
2019-05-16T04:46:21.469Z,6.30
2019-05-16T04:48:51.030Z,6.87
2019-05-16T04:51:22.025Z,6.87
2019-05-16T04:53:51.256Z,6.87
2019-05-16T04:56:21.623Z,7.53
2019-05-16T04:58:51.623Z,6.80
2019-05-16T05:01:21.900Z,5.03
2019-05-16T05:04:01.693Z,6.23
2019-05-16T05:06:21.457Z,7.10
2019-05-16T05:08:58.053Z,7.90
2019-05-16T05:11:21.723Z,8.17
2019-05-16T05:13:50.921Z,6.40
2019-05-16T05:16:20.436Z,6.60
2019-05-16T05:18:51.472Z,8.73
2019-05-16T05:21:20.901Z,5.73
2019-05-16T05:23:50.836Z,7.00
2019-05-16T05:26:20.160Z,7.97
2019-05-16T05:28:50.854Z,7.60
2019-05-16T05:31:25.081Z,8.53
2019-05-16T05:33:50.821Z,10.10
2019-05-16T05:36:21.031Z,8.10
2019-05-16T05:39:06.287Z,7.67
2019-05-16T05:41:21.114Z,5.20
2019-05-16T05:43:50.385Z,6.90
2019-05-16T05:46:20.421Z,6.40
2019-05-16T05:48:50.584Z,7.80
2019-05-16T05:51:20.682Z,8.87
2019-05-16T05:53:50.936Z,8.33
2019-05-16T05:56:20.012Z,7.70
2019-05-16T05:58:51.244Z,7.77
2019-05-16T06:01:20.575Z,7.70
2019-05-16T06:03:50.538Z,7.53
2019-05-16T06:06:21.060Z,12.37
2019-05-16T06:08:50.412Z,8.47
2019-05-16T06:11:20.562Z,10.90
2019-05-16T06:13:50.106Z,13.00
2019-05-16T06:16:20.471Z,9.07
2019-05-16T06:18:50.260Z,8.60
2019-05-16T06:21:20.355Z,9.83
2019-05-16T06:23:51.007Z,9.17
2019-05-16T06:26:20.523Z,12.63
2019-05-16T06:28:50.465Z,9.23
2019-05-16T06:31:22.092Z,8.63
2019-05-16T06:33:50.358Z,8.00
2019-05-16T06:36:20.381Z,8.37
2019-05-16T06:38:49.894Z,9.37
2019-05-16T06:41:19.931Z,11.50
2019-05-16T06:43:50.738Z,11.47
2019-05-16T06:46:20.236Z,9.43
2019-05-16T06:48:50.644Z,12.53
2019-05-16T06:51:20.168Z,10.80
2019-05-16T06:53:49.999Z,8.60
2019-05-16T06:56:20.066Z,9.20
2019-05-16T06:58:51.785Z,9.83
2019-05-16T07:01:20.910Z,9.50
2019-05-16T07:03:50.766Z,10.07
2019-05-16T07:06:46.084Z,9.20
2019-05-16T07:08:50.921Z,10.87
2019-05-16T07:11:20.249Z,9.37
2019-05-16T07:13:51.949Z,10.43
2019-05-16T07:16:20.581Z,9.40
2019-05-16T07:18:50.554Z,11.30
2019-05-16T07:21:20.327Z,12.33
2019-05-16T07:23:51.152Z,9.07
2019-05-16T07:26:20.664Z,10.17
2019-05-16T07:28:51.506Z,9.43
2019-05-16T07:31:22.628Z,12.57
2019-05-16T07:33:50.988Z,11.33
2019-05-16T07:36:20.848Z,10.27
2019-05-16T07:38:50.964Z,11.37
2019-05-16T07:41:20.578Z,8.20
2019-05-16T07:43:50.516Z,12.37
2019-05-16T07:46:20.579Z,11.83
2019-05-16T07:48:51.779Z,10.53
2019-05-16T07:51:20.670Z,13.90
2019-05-16T07:53:50.473Z,13.37
2019-05-16T07:56:20.349Z,16.60
2019-05-16T07:58:50.811Z,13.43
2019-05-16T08:01:20.895Z,10.60
2019-05-16T08:03:50.900Z,11.80
2019-05-16T08:06:20.320Z,11.60
2019-05-16T08:08:50.923Z,18.43
2019-05-16T08:11:20.513Z,10.30
2019-05-16T08:13:50.891Z,13.30
2019-05-16T08:16:20.805Z,12.20
2019-05-16T08:18:51.083Z,12.93
2019-05-16T08:21:20.409Z,12.27
2019-05-16T08:23:50.350Z,12.10
2019-05-16T08:26:22.052Z,13.97
2019-05-16T08:28:50.683Z,16.43
2019-05-16T08:31:21.378Z,12.53
2019-05-16T08:33:53.717Z,13.27
2019-05-16T08:36:22.177Z,12.63
2019-05-16T08:38:52.247Z,12.57
2019-05-16T08:41:22.081Z,14.13
2019-05-16T08:46:22.045Z,10.47
2019-05-16T08:48:53.841Z,13.53
2019-05-16T08:50:05.961Z,10.77
2019-05-16T08:51:22.234Z,12.50
2019-05-16T08:53:51.541Z,14.90
2019-05-16T08:56:21.734Z,12.87
2019-05-16T08:58:53.842Z,12.33
2019-05-16T09:01:21.965Z,11.73
2019-05-16T09:03:52.161Z,9.93
2019-05-16T09:06:22.809Z,11.17
2019-05-16T09:08:52.280Z,11.47
2019-05-16T09:11:35.625Z,10.87
2019-05-16T09:13:52.926Z,10.83
2019-05-16T09:16:21.816Z,9.73
2019-05-16T09:18:51.370Z,9.50
2019-05-16T09:21:20.551Z,9.07
2019-05-16T09:23:49.539Z,16.47
2019-05-16T09:26:19.801Z,8.93
2019-05-16T09:28:48.899Z,12.37
2019-05-16T09:31:18.122Z,9.23
2019-05-16T09:33:47.510Z,8.63
2019-05-16T09:36:17.582Z,13.60
2019-05-16T09:38:48.594Z,12.93
2019-05-16T09:41:17.310Z,9.73
2019-05-16T09:43:48.595Z,11.23
2019-05-16T09:46:17.292Z,10.27
2019-05-16T09:48:47.828Z,10.23
2019-05-16T09:51:21.139Z,10.13
2019-05-16T09:53:48.923Z,10.90
2019-05-16T09:56:18.870Z,10.00
2019-05-16T09:58:48.822Z,10.20
2019-05-16T10:01:17.835Z,7.50
2019-05-16T10:03:47.732Z,9.30
2019-05-16T10:06:19.249Z,9.33
2019-05-16T10:08:47.663Z,9.10
2019-05-16T10:11:18.116Z,8.13
2019-05-16T10:13:47.368Z,13.73
2019-05-16T10:16:16.721Z,7.73
2019-05-16T10:18:47.552Z,8.90
2019-05-16T10:21:19.876Z,10.23
2019-05-16T10:23:47.612Z,10.50
2019-05-16T10:26:17.234Z,9.90
2019-05-16T10:28:47.092Z,7.67
2019-05-16T10:31:17.750Z,9.07
2019-05-16T10:33:47.756Z,7.77
2019-05-16T10:36:17.292Z,11.13
2019-05-16T10:38:48.465Z,11.67
2019-05-16T10:41:17.638Z,13.60
2019-05-16T10:43:47.468Z,9.23
2019-05-16T10:46:17.728Z,6.83
2019-05-16T10:48:47.115Z,10.33
2019-05-16T10:51:16.937Z,9.53
2019-05-16T10:54:02.466Z,9.13
2019-05-16T10:56:16.857Z,9.40
2019-05-16T10:59:12.126Z,7.80
2019-05-16T11:01:26.615Z,9.23
2019-05-16T11:03:49.185Z,8.57
2019-05-16T11:06:25.487Z,9.93
2019-05-16T11:08:49.142Z,12.67
2019-05-16T11:11:19.983Z,6.73
2019-05-16T11:13:51.064Z,9.50
2019-05-16T11:16:19.863Z,8.93
2019-05-16T11:18:48.793Z,7.57
2019-05-16T11:21:19.353Z,7.73
2019-05-16T11:23:48.275Z,6.37
2019-05-16T11:26:17.279Z,9.53
2019-05-16T11:28:48.440Z,8.07
2019-05-16T11:31:17.650Z,6.73
2019-05-16T11:33:47.697Z,9.00
2019-05-16T11:36:16.920Z,7.73
2019-05-16T11:38:47.537Z,14.67
2019-05-16T11:41:16.786Z,11.47
2019-05-16T11:43:47.338Z,7.70
2019-05-16T11:46:16.563Z,6.43
2019-05-16T11:48:45.472Z,8.53
2019-05-16T11:51:14.369Z,11.27
2019-05-16T11:53:43.309Z,7.47
2019-05-16T11:56:12.328Z,7.00
2019-05-16T11:58:41.355Z,4.83
2019-05-16T12:01:10.385Z,9.83
2019-05-16T12:03:39.313Z,7.93
2019-05-16T12:06:10.329Z,6.83
2019-05-16T12:08:38.800Z,6.37
2019-05-16T12:11:07.801Z,6.93
2019-05-16T12:13:37.082Z,6.27
2019-05-16T12:16:07.626Z,6.47
2019-05-16T12:18:37.440Z,7.70
2019-05-16T12:21:07.645Z,5.87
2019-05-16T12:23:37.398Z,7.43
2019-05-16T12:26:07.890Z,5.73
2019-05-16T12:28:37.242Z,7.03
2019-05-16T12:31:07.188Z,5.90
2019-05-16T12:33:37.425Z,4.97
2019-05-16T12:36:07.499Z,5.60
2019-05-16T12:38:37.972Z,6.07
2019-05-16T12:41:08.274Z,5.70
2019-05-16T12:43:48.242Z,5.60
2019-05-16T12:46:07.825Z,6.70
2019-05-16T12:48:37.471Z,5.37
2019-05-16T12:51:08.306Z,8.47
2019-05-16T12:53:37.313Z,5.27
2019-05-16T12:56:06.290Z,6.33
2019-05-16T12:58:41.986Z,6.80
2019-05-16T13:01:07.770Z,7.23
2019-05-16T13:03:37.802Z,5.50
2019-05-16T13:06:06.947Z,4.20
2019-05-16T13:08:37.452Z,5.60
2019-05-16T13:11:07.277Z,6.77
2019-05-16T13:13:37.858Z,6.13
2019-05-16T13:16:07.611Z,7.57
2019-05-16T13:18:37.026Z,5.43
2019-05-16T13:21:06.821Z,5.07
2019-05-16T13:23:35.986Z,5.80
2019-05-16T13:26:07.256Z,10.43
2019-05-16T13:28:37.865Z,7.40
2019-05-16T13:31:07.718Z,6.40
2019-05-16T13:33:37.002Z,8.97
2019-05-16T13:36:07.400Z,5.07
2019-05-16T13:38:37.852Z,5.63
2019-05-16T13:41:07.645Z,6.37
2019-05-16T13:43:37.664Z,5.70
2019-05-16T13:46:07.221Z,5.27
2019-05-16T13:48:37.684Z,5.87
2019-05-16T13:51:14.654Z,7.83
2019-05-16T13:53:37.601Z,6.70
2019-05-16T13:56:12.615Z,7.40
2019-05-16T13:58:38.727Z,6.10
2019-05-16T14:01:08.125Z,6.50
2019-05-16T14:03:37.504Z,5.20
2019-05-16T14:06:07.163Z,4.57
2019-05-16T14:08:37.375Z,10.50
2019-05-16T14:11:10.284Z,6.20
2019-05-16T14:13:38.365Z,5.03
2019-05-16T14:16:07.590Z,6.70
2019-05-16T14:18:37.978Z,9.97
2019-05-16T14:21:07.160Z,4.97
2019-05-16T14:23:37.963Z,5.10
2019-05-16T14:26:07.291Z,5.90
2019-05-16T14:28:37.407Z,6.13
2019-05-16T14:31:07.438Z,7.00
2019-05-16T14:33:36.818Z,5.17
2019-05-16T14:36:07.314Z,5.17
2019-05-16T14:38:37.691Z,5.27
2019-05-16T14:41:07.999Z,4.30
2019-05-16T14:43:37.726Z,3.70
2019-05-16T14:46:09.394Z,4.27
2019-05-16T14:48:42.057Z,4.93
2019-05-16T14:51:10.947Z,3.97
2019-05-16T14:53:39.849Z,6.73
2019-05-16T14:56:08.749Z,7.53
2019-05-16T14:58:38.110Z,4.83
2019-05-16T15:01:07.507Z,5.60
2019-05-16T15:03:41.842Z,5.33
2019-05-16T15:06:11.401Z,5.63
2019-05-16T15:08:40.366Z,4.90
2019-05-16T15:17:36.679Z,8.13
2019-05-16T15:20:06.959Z,4.90
2019-05-16T15:22:38.406Z,5.03
2019-05-16T15:25:08.219Z,3.93
2019-05-16T15:27:38.347Z,4.87
2019-05-16T15:30:08.316Z,7.33
2019-05-16T15:32:38.581Z,4.00
2019-05-16T15:35:08.187Z,5.03
2019-05-16T15:37:37.517Z,4.43
2019-05-16T15:40:07.919Z,3.97
2019-05-16T15:42:37.439Z,5.37
2019-05-16T15:45:07.194Z,4.03
2019-05-16T15:47:37.377Z,6.37
2019-05-16T15:50:08.267Z,6.20
2019-05-16T15:52:38.338Z,3.70
2019-05-16T15:55:10.185Z,4.30
2019-05-16T15:57:39.728Z,5.57
2019-05-16T16:00:10.460Z,3.47
2019-05-16T16:02:39.997Z,4.80
2019-05-16T16:05:09.912Z,6.37
2019-05-16T16:07:38.974Z,6.07
2019-05-16T16:10:08.136Z,5.60
2019-05-16T16:12:37.739Z,3.30
2019-05-16T16:15:07.806Z,4.23
2019-05-16T16:17:37.976Z,3.97
2019-05-16T16:20:10.402Z,4.50
2019-05-16T16:22:38.194Z,4.77
2019-05-16T16:25:07.671Z,6.53
2019-05-16T16:27:36.731Z,3.47
2019-05-16T16:30:06.939Z,5.23
2019-05-16T16:32:37.905Z,5.77
2019-05-16T16:35:07.929Z,5.27
2019-05-16T16:37:37.992Z,5.53
2019-05-16T16:40:11.037Z,6.97
2019-05-16T16:42:37.926Z,7.37
2019-05-16T16:45:07.358Z,5.60
2019-05-16T16:47:37.722Z,7.40
2019-05-16T16:50:08.168Z,5.77
2019-05-16T16:52:38.226Z,6.23
2019-05-16T16:55:08.636Z,4.97
2019-05-16T16:57:38.455Z,4.47
2019-05-16T17:00:08.901Z,5.00
2019-05-16T17:02:37.996Z,5.20
2019-05-16T17:05:11.730Z,4.07
2019-05-16T17:07:37.837Z,4.77
2019-05-16T17:10:07.112Z,4.87
2019-05-16T17:12:41.652Z,7.47
2019-05-16T17:15:09.137Z,4.10
2019-05-16T17:17:38.283Z,7.27
2019-05-16T17:20:08.548Z,4.57
2019-05-16T17:22:37.927Z,6.17
2019-05-16T17:25:08.251Z,4.13
2019-05-16T17:27:37.850Z,5.60
2019-05-16T17:30:08.788Z,5.00
2019-05-16T17:32:39.018Z,4.97
2019-05-16T17:35:08.061Z,6.27
2019-05-16T17:37:37.577Z,7.37
2019-05-16T17:40:06.957Z,5.43
2019-05-16T17:42:37.298Z,4.73
2019-05-16T17:45:07.955Z,6.23
2019-05-16T17:47:37.126Z,3.90
2019-05-16T17:50:07.105Z,3.90
2019-05-16T17:52:36.903Z,6.73
2019-05-16T17:55:07.475Z,11.40
2019-05-16T17:57:38.076Z,5.87
2019-05-16T18:00:12.821Z,4.80
2019-05-16T18:02:38.582Z,4.57
2019-05-16T18:05:07.915Z,3.43
2019-05-16T18:07:37.270Z,5.70
2019-05-16T18:10:07.476Z,4.43
2019-05-16T18:12:37.193Z,5.43
2019-05-16T18:15:08.391Z,5.57
2019-05-16T18:17:38.973Z,2.83
2019-05-16T18:20:08.122Z,5.47
2019-05-16T18:22:37.029Z,2.57
2019-05-16T18:25:07.334Z,2.97
2019-05-16T18:27:37.556Z,5.87
2019-05-16T18:30:08.110Z,5.20
2019-05-16T18:32:37.444Z,2.77
2019-05-16T18:35:07.361Z,4.37
2019-05-16T18:37:36.550Z,4.90
2019-05-16T18:40:07.206Z,10.80
2019-05-16T18:42:36.876Z,2.53
2019-05-16T18:45:07.602Z,3.10
2019-05-16T18:47:37.785Z,3.27
2019-05-16T18:50:08.146Z,3.60
2019-05-16T18:52:37.658Z,5.07
2019-05-16T18:55:08.443Z,3.97
2019-05-16T18:57:37.939Z,3.07
2019-05-16T19:00:10.551Z,3.17
2019-05-16T19:02:38.373Z,4.53
2019-05-16T19:05:07.493Z,4.03
2019-05-16T19:07:36.899Z,3.17
2019-05-16T19:10:07.441Z,4.47
2019-05-16T19:12:37.185Z,3.10
2019-05-16T19:15:07.329Z,4.00
2019-05-16T19:17:37.852Z,5.67
2019-05-16T19:20:07.260Z,4.97
2019-05-16T19:22:37.150Z,3.07
2019-05-16T19:25:07.078Z,4.70
2019-05-16T19:27:37.060Z,4.33
2019-05-16T19:30:07.400Z,3.63
2019-05-16T19:32:39.052Z,3.93
2019-05-16T19:35:07.789Z,3.03
2019-05-16T19:37:40.412Z,10.37
2019-05-16T19:40:07.755Z,6.00
2019-05-16T19:42:37.026Z,3.37
2019-05-16T19:45:06.506Z,3.37
2019-05-16T19:47:40.350Z,3.60
2019-05-16T19:50:07.915Z,5.80
2019-05-16T19:52:36.955Z,5.33
2019-05-16T19:55:07.178Z,3.53
2019-05-16T19:57:37.393Z,6.47
2019-05-16T20:00:07.749Z,3.17
2019-05-16T20:02:37.019Z,6.57
2019-05-16T20:05:06.642Z,8.23
2019-05-16T20:07:37.165Z,6.23
2019-05-16T20:10:09.402Z,6.80
2019-05-16T20:12:37.610Z,4.47
2019-05-16T20:15:10.932Z,4.20
2019-05-16T20:17:50.961Z,4.43
2019-05-16T20:20:10.055Z,7.90
2019-05-16T20:22:38.964Z,5.03
2019-05-16T20:25:08.135Z,9.50
2019-05-16T20:27:37.030Z,4.33
2019-05-16T20:30:06.737Z,5.63
2019-05-16T20:32:37.337Z,5.80
2019-05-16T20:35:08.760Z,3.50
2019-05-16T20:37:37.340Z,6.10
2019-05-16T20:40:09.219Z,5.83
2019-05-16T20:42:38.097Z,5.97
2019-05-16T20:45:08.025Z,4.63
2019-05-16T20:47:37.291Z,6.03
2019-05-16T20:50:07.599Z,4.37
2019-05-16T20:52:37.814Z,4.17
2019-05-16T20:55:07.639Z,4.50
2019-05-16T20:57:37.637Z,8.67
2019-05-16T21:00:07.504Z,6.13
2019-05-16T21:02:37.974Z,7.07
2019-05-16T21:05:08.157Z,6.23
2019-05-16T21:07:37.628Z,6.20
2019-05-16T21:10:07.950Z,7.17
2019-05-16T21:12:40.285Z,6.77
2019-05-16T21:15:08.429Z,6.10
2019-05-16T21:17:37.347Z,5.77
2019-05-16T21:20:07.749Z,4.93
2019-05-16T21:22:37.182Z,5.53
2019-05-16T21:25:06.560Z,5.50
2019-05-16T21:27:37.881Z,6.60
2019-05-16T21:30:07.396Z,5.50
2019-05-16T21:32:38.082Z,6.57
2019-05-16T21:35:08.141Z,7.80
2019-05-16T21:37:37.529Z,7.73
2019-05-16T21:40:08.002Z,7.07
2019-05-16T21:42:38.792Z,7.60
2019-05-16T21:45:08.053Z,6.30
2019-05-16T21:47:38.241Z,7.67
2019-05-16T21:50:08.702Z,6.90
2019-05-16T21:52:37.669Z,6.27
2019-05-16T21:55:08.228Z,6.57
2019-05-16T21:57:37.832Z,6.20
2019-05-16T22:00:21.989Z,8.77
2019-05-16T22:02:52.861Z,5.77
2019-05-16T22:05:22.454Z,5.00
2019-05-16T22:07:51.646Z,5.60
2019-05-16T22:10:20.724Z,5.07
2019-05-16T22:12:49.875Z,7.77
2019-05-16T22:15:19.200Z,5.53
2019-05-16T22:17:48.467Z,5.73
2019-05-16T22:20:17.429Z,7.77
2019-05-16T22:22:46.936Z,6.70
2019-05-16T22:25:16.763Z,7.23
2019-05-16T22:27:48.452Z,6.53
2019-05-16T22:30:18.081Z,10.10
2019-05-16T22:32:47.802Z,6.67
2019-05-16T22:35:17.939Z,7.77
2019-05-16T22:37:55.191Z,7.27
2019-05-16T22:40:18.847Z,7.83
2019-05-16T22:42:47.807Z,9.37
2019-05-16T22:45:19.702Z,8.20
2019-05-16T22:47:49.649Z,8.13
2019-05-16T22:50:18.768Z,7.57
2019-05-16T22:52:47.696Z,7.47
2019-05-16T22:55:17.662Z,8.37
2019-05-16T22:57:47.622Z,6.60
2019-05-16T23:00:26.446Z,8.33
2019-05-16T23:02:56.601Z,8.33
2019-05-16T23:05:27.400Z,8.43
2019-05-16T23:08:05.689Z,11.20
2019-05-16T23:10:28.041Z,8.57
2019-05-16T23:12:57.390Z,8.30
2019-05-16T23:15:26.677Z,9.20
2019-05-16T23:17:57.389Z,9.17
2019-05-16T23:20:27.729Z,10.90
2019-05-16T23:22:56.899Z,9.87
2019-05-16T23:25:25.807Z,8.83
2019-05-16T23:27:56.611Z,12.23
2019-05-16T23:30:27.268Z,9.20
2019-05-16T23:32:56.367Z,9.40
2019-05-16T23:35:26.929Z,8.60
2019-05-16T23:37:56.942Z,11.20
2019-05-16T23:40:26.146Z,8.97
2019-05-16T23:42:56.866Z,11.57
2019-05-16T23:45:27.477Z,8.83
2019-05-16T23:47:56.481Z,8.90
2019-05-16T23:50:27.398Z,12.90
2019-05-16T23:52:56.390Z,11.63
2019-05-16T23:55:27.669Z,11.47
2019-05-16T23:57:57.150Z,13.27
